Time;durP1;ratioP1;P1;durP2;ratioP2;P2;SDS_P1;SDS_P2;PMS_P1;PMS_P2;Temp;Humidity;BMP_temperature;BMP_pressure;BME280_temperature;BME280_humidity;BME280_pressure;Samples;Min_cycle;Max_cycle;Signal;HPM_P1;HPM_P2
2022/03/19 00:01:32;;;;;;;13.17;6.97;;;;;;;-3.84;63.23;97809.95;1708066;84;21487;-65
2022/03/19 00:03:58;;;;;;;12.57;7.23;;;;;;;-3.97;62.94;97802.62;1707848;84;21025;-65
2022/03/19 00:06:25;;;;;;;10.73;6.10;;;;;;;-3.99;63.35;97805.87;1707981;84;21519;-65
2022/03/19 00:08:53;;;;;;;9.90;6.20;;;;;;;-4.09;64.05;97797.85;1707810;84;21029;-65
2022/03/19 00:11:22;;;;;;;12.30;7.33;;;;;;;-4.01;63.69;97795.83;1708242;84;21523;-65
2022/03/19 00:13:49;;;;;;;12.33;6.63;;;;;;;-3.92;63.73;97799.98;1707960;84;21021;-65
2022/03/19 00:16:15;;;;;;;9.57;5.37;;;;;;;-3.93;63.89;97801.17;1707977;84;21045;-65
2022/03/19 00:18:42;;;;;;;11.20;6.80;;;;;;;-4.19;64.11;97808.28;1708244;84;21053;-65
2022/03/19 00:21:08;;;;;;;12.07;6.17;;;;;;;-4.32;64.23;97803.91;1707940;84;21526;-65
2022/03/19 00:23:35;;;;;;;11.33;6.20;;;;;;;-4.25;64.66;97807.84;1708176;84;21052;-65
2022/03/19 00:26:02;;;;;;;10.73;6.43;;;;;;;-4.13;64.08;97797.14;1708135;84;21495;-65
2022/03/19 00:28:28;;;;;;;8.23;5.40;;;;;;;-4.01;63.93;97794.54;1707887;84;21009;-65
2022/03/19 00:30:55;;;;;;;11.33;7.00;;;;;;;-3.95;63.67;97799.77;1708157;84;21080;-65
2022/03/19 00:33:22;;;;;;;8.60;5.50;;;;;;;-3.88;63.11;97793.75;1708171;84;21511;-65
2022/03/19 00:35:49;;;;;;;9.33;5.53;;;;;;;-3.85;63.00;97793.59;1708136;84;21029;-65
2022/03/19 00:38:17;;;;;;;10.53;6.00;;;;;;;-3.82;62.86;97796.78;1708171;84;21048;-65
2022/03/19 00:40:45;;;;;;;10.80;5.77;;;;;;;-3.82;62.60;97791.63;1708051;84;21021;-65
2022/03/19 00:43:12;;;;;;;12.93;6.13;;;;;;;-3.90;62.37;97795.34;1708125;84;21013;-65
2022/03/19 00:45:39;;;;;;;10.40;6.27;;;;;;;-3.93;62.79;97790.86;1708114;84;21076;-65
2022/03/19 00:48:06;;;;;;;12.03;7.03;;;;;;;-4.09;63.67;97801.72;1707974;84;21053;-65
2022/03/19 00:50:33;;;;;;;12.43;6.83;;;;;;;-4.16;63.17;97797.81;1707938;84;21026;-65
2022/03/19 00:52:59;;;;;;;11.03;5.83;;;;;;;-4.26;64.52;97796.64;1708119;84;20985;-65
2022/03/19 00:55:26;;;;;;;9.07;5.77;;;;;;;-4.37;65.06;97800.98;1708080;84;20994;-65
2022/03/19 00:57:52;;;;;;;9.90;6.37;;;;;;;-4.33;64.53;97795.68;1707957;84;21514;-65
2022/03/19 01:00:24;;;;;;;11.00;6.23;;;;;;;-4.26;64.10;97797.93;1707816;84;20994;-65
2022/03/19 01:02:49;;;;;;;8.30;5.70;;;;;;;-4.23;64.69;97792.11;1708085;84;21040;-68
2022/03/19 01:05:17;;;;;;;9.97;5.53;;;;;;;-4.34;64.69;97791.29;1707878;84;21089;-68
2022/03/19 01:07:52;;;;;;;10.60;5.57;;;;;;;-4.30;64.38;97794.61;1710250;84;21032;-68
2022/03/19 01:10:26;;;;;;;8.60;5.10;;;;;;;-4.24;64.06;97786.02;1716424;84;21068;-67
2022/03/19 01:12:54;;;;;;;9.43;5.43;;;;;;;-4.12;63.79;97788.61;1716309;84;21000;-67
2022/03/19 01:15:23;;;;;;;8.20;5.27;;;;;;;-4.20;63.35;97786.77;1716395;83;21064;-67
2022/03/19 01:17:50;;;;;;;12.70;5.47;;;;;;;-4.29;63.28;97786.48;1716444;84;21000;-67
2022/03/19 01:20:17;;;;;;;9.27;4.53;;;;;;;-4.41;63.58;97786.09;1716524;84;21028;-67
2022/03/19 01:22:46;;;;;;;13.60;6.30;;;;;;;-4.52;63.69;97777.94;1716517;84;21048;-67
2022/03/19 01:25:15;;;;;;;10.10;5.40;;;;;;;-4.55;63.84;97781.59;1716386;84;21032;-67
2022/03/19 01:27:44;;;;;;;11.70;6.73;;;;;;;-4.62;66.47;97775.07;1716474;83;20977;-67
2022/03/19 01:30:13;;;;;;;16.43;6.67;;;;;;;-4.67;66.36;97785.42;1716399;84;21085;-67
2022/03/19 01:32:40;;;;;;;11.37;5.90;;;;;;;-4.69;67.33;97781.83;1716369;83;21040;-67
2022/03/19 01:35:09;;;;;;;10.73;6.13;;;;;;;-4.76;67.09;97782.54;1716381;84;20997;-67
2022/03/19 01:37:37;;;;;;;9.27;5.27;;;;;;;-4.69;66.49;97776.67;1716433;83;21031;-67
2022/03/19 01:40:06;;;;;;;9.60;6.30;;;;;;;-4.64;65.64;97784.75;1716325;84;21013;-68
2022/03/19 01:42:35;;;;;;;11.33;5.73;;;;;;;-4.60;65.43;97771.33;1716271;83;21546;-68
2022/03/19 01:45:07;;;;;;;9.67;5.50;;;;;;;-4.52;65.30;97774.08;1716335;84;21072;-68
2022/03/19 01:47:33;;;;;;;10.53;5.77;;;;;;;-4.59;64.74;97766.67;1716490;83;21029;-67
2022/03/19 01:50:00;;;;;;;11.53;5.57;;;;;;;-4.69;65.06;97775.78;1716351;84;21503;-68
2022/03/19 01:52:28;;;;;;;10.40;6.00;;;;;;;-4.69;65.88;97772.81;1716512;84;21064;-67
2022/03/19 01:54:56;;;;;;;10.27;5.90;;;;;;;-4.75;66.12;97770.19;1716312;84;21095;-67
2022/03/19 01:57:27;;;;;;;8.60;4.27;;;;;;;-4.69;65.66;97773.21;1716414;84;21008;-68
2022/03/19 01:59:57;;;;;;;9.13;5.60;;;;;;;-4.70;65.80;97780.05;1716570;84;21523;-67
2022/03/19 02:02:26;;;;;;;9.67;5.47;;;;;;;-4.80;66.07;97774.59;1716379;83;21012;-67
2022/03/19 02:04:54;;;;;;;11.93;5.83;;;;;;;-4.73;65.85;97772.50;1716373;84;21040;-67
2022/03/19 02:07:21;;;;;;;11.80;5.50;;;;;;;-4.61;65.54;97770.80;1716367;83;21036;-67
2022/03/19 02:09:47;;;;;;;12.93;6.60;;;;;;;-4.67;65.31;97767.79;1700961;84;21078;-67
2022/03/19 02:12:15;;;;;;;12.00;5.50;;;;;;;-4.63;65.23;97771.11;1700922;84;21018;-67
2022/03/19 02:14:44;;;;;;;8.13;5.30;;;;;;;-4.55;64.97;97771.28;1700640;83;21497;-67
2022/03/19 02:17:11;;;;;;;12.67;5.83;;;;;;;-4.57;64.56;97771.55;1701011;83;21478;-67
2022/03/19 02:19:50;;;;;;;11.37;6.00;;;;;;;-4.54;64.73;97770.48;1701025;84;21492;-67
2022/03/19 02:22:18;;;;;;;7.20;4.23;;;;;;;-4.47;64.68;97761.55;1700869;84;21073;-66
2022/03/19 02:27:32;;;;;;;10.43;5.57;;;;;;;-4.44;64.42;97758.78;1701022;84;21011;-66
2022/03/19 02:29:59;;;;;;;10.03;5.60;;;;;;;-4.45;64.17;97762.16;1700807;84;20971;-67
2022/03/19 02:32:26;;;;;;;9.70;5.73;;;;;;;-4.54;65.48;97763.16;1700926;83;21465;-66
2022/03/19 02:34:54;;;;;;;12.13;5.77;;;;;;;-4.57;66.43;97758.67;1700702;84;21034;-67
2022/03/19 02:37:21;;;;;;;9.83;5.97;;;;;;;-4.62;66.29;97758.33;1701193;83;21010;-66
2022/03/19 02:39:48;;;;;;;9.80;5.40;;;;;;;-4.54;66.34;97753.73;1701012;83;20983;-66
2022/03/19 02:42:20;;;;;;;12.13;6.47;;;;;;;-4.55;66.27;97754.94;1701088;84;21011;-66
2022/03/19 02:44:49;;;;;;;10.30;5.70;;;;;;;-4.42;66.11;97765.36;1700780;84;21521;-66
2022/03/19 02:47:15;;;;;;;9.70;6.00;;;;;;;-4.27;65.43;97751.41;1700987;83;21046;-66
2022/03/19 02:49:42;;;;;;;10.00;5.97;;;;;;;-4.17;64.67;97744.84;1700939;84;21477;-66
2022/03/19 02:52:09;;;;;;;12.83;6.80;;;;;;;-4.20;64.18;97752.36;1701092;84;21078;-66
2022/03/19 02:54:35;;;;;;;10.73;5.83;;;;;;;-4.27;64.88;97748.44;1700646;84;21312;-66
2022/03/19 02:57:02;;;;;;;12.17;5.67;;;;;;;-4.28;64.61;97747.02;1701093;84;20991;-66
2022/03/19 02:59:33;;;;;;;10.17;6.13;;;;;;;-4.16;65.06;97752.70;1700787;84;21078;-66
2022/03/19 03:02:03;;;;;;;13.30;6.93;;;;;;;-4.08;64.90;97749.39;1701130;83;21034;-66
2022/03/19 03:04:30;;;;;;;9.27;5.30;;;;;;;-4.01;64.56;97745.15;1700844;84;21500;-66
2022/03/19 03:07:00;;;;;;;11.67;6.33;;;;;;;-4.11;64.07;97745.28;1700912;83;21497;-66
2022/03/19 03:09:30;;;;;;;12.07;6.50;;;;;;;-4.09;64.35;97748.87;1705988;84;21567;-67
2022/03/19 03:11:58;;;;;;;11.50;6.30;;;;;;;-4.12;64.07;97749.94;1707904;84;20973;-67
2022/03/19 03:14:26;;;;;;;11.67;6.33;;;;;;;-4.21;64.21;97747.61;1707621;84;21044;-67
2022/03/19 03:16:54;;;;;;;13.10;6.37;;;;;;;-4.24;64.22;97749.94;1708165;84;20993;-67
2022/03/19 03:19:21;;;;;;;11.67;6.30;;;;;;;-4.21;64.76;97751.48;1707887;84;21052;-66
2022/03/19 03:21:47;;;;;;;10.00;6.40;;;;;;;-4.24;64.42;97749.94;1708034;84;21490;-66
2022/03/19 03:24:15;;;;;;;7.07;4.67;;;;;;;-4.17;64.24;97749.60;1708140;84;20977;-66
2022/03/19 03:26:44;;;;;;;11.43;5.97;;;;;;;-4.25;63.73;97756.29;1707888;84;21554;-66
2022/03/19 03:29:14;;;;;;;10.03;5.30;;;;;;;-4.35;64.79;97756.00;1707841;84;21503;-66
2022/03/19 03:31:40;;;;;;;13.00;6.20;;;;;;;-4.45;64.65;97754.43;1708197;84;20969;-66
2022/03/19 03:34:07;;;;;;;9.23;5.57;;;;;;;-4.47;64.68;97752.52;1707838;84;20997;-66
2022/03/19 03:36:35;;;;;;;12.40;5.57;;;;;;;-4.48;64.40;97758.08;1707929;84;21056;-66
2022/03/19 03:39:02;;;;;;;9.07;5.37;;;;;;;-4.48;64.37;97756.78;1707936;84;21491;-66
2022/03/19 03:41:30;;;;;;;11.23;5.63;;;;;;;-4.45;64.23;97754.43;1708128;84;21068;-66
2022/03/19 03:43:56;;;;;;;10.93;5.57;;;;;;;-4.51;64.56;97752.70;1707806;84;21527;-66
2022/03/19 03:46:23;;;;;;;10.20;5.40;;;;;;;-4.53;64.16;97758.13;1707835;84;21014;-66
2022/03/19 03:48:50;;;;;;;8.83;5.13;;;;;;;-4.55;63.93;97745.92;1708059;84;20997;-66
2022/03/19 03:51:17;;;;;;;10.33;4.80;;;;;;;-4.63;63.91;97753.97;1708086;84;20997;-66
2022/03/19 03:53:45;;;;;;;10.37;5.30;;;;;;;-4.71;64.11;97757.66;1708077;84;21021;-66
2022/03/19 03:56:14;;;;;;;8.07;5.63;;;;;;;-4.76;64.13;97756.42;1707640;84;21823;-66
2022/03/19 03:58:41;;;;;;;10.47;5.67;;;;;;;-4.90;64.95;97759.23;1707379;84;21017;-66
2022/03/19 04:01:09;;;;;;;11.23;5.90;;;;;;;-5.06;66.37;97757.59;1707813;84;21033;-66
2022/03/19 04:03:36;;;;;;;10.97;6.27;;;;;;;-5.23;67.45;97763.61;1707892;84;21531;-66
2022/03/19 04:06:03;;;;;;;10.17;5.80;;;;;;;-5.36;67.71;97766.03;1708108;84;21013;-66
2022/03/19 04:08:31;;;;;;;9.03;5.47;;;;;;;-5.31;67.04;97765.11;1709487;84;21574;-66
2022/03/19 04:10:58;;;;;;;13.07;6.67;;;;;;;-5.18;66.59;97768.23;1716103;83;21067;-66
2022/03/19 04:13:25;;;;;;;19.77;7.70;;;;;;;-5.10;65.84;97764.16;1716152;83;21045;-66
2022/03/19 04:15:51;;;;;;;32.53;12.80;;;;;;;-5.06;65.72;97764.02;1716468;83;21025;-66
2022/03/19 04:18:18;;;;;;;47.43;16.33;;;;;;;-5.00;65.69;97769.22;1716433;84;21482;-66
2022/03/19 04:20:44;;;;;;;19.73;8.77;;;;;;;-5.04;64.73;97765.00;1716073;83;21076;-66
2022/03/19 04:23:11;;;;;;;13.87;6.33;;;;;;;-5.05;64.95;97764.52;1716306;83;20988;-66
2022/03/19 04:25:38;;;;;;;12.13;5.70;;;;;;;-5.19;65.16;97775.42;1716030;83;21188;-66
2022/03/19 04:28:05;;;;;;;15.13;7.00;;;;;;;-5.16;65.40;97769.25;1716300;84;21036;-66
2022/03/19 04:30:31;;;;;;;20.00;8.73;;;;;;;-5.08;65.67;97770.72;1716253;84;21049;-66
2022/03/19 04:33:01;;;;;;;28.63;11.47;;;;;;;-5.08;66.75;97772.90;1716579;83;21016;-66
2022/03/19 04:38:18;;;;;;;14.17;7.20;;;;;;;-5.05;66.70;97778.67;1716632;83;20968;-66
2022/03/19 04:40:47;;;;;;;10.83;5.80;;;;;;;-5.07;66.38;97775.97;1716442;83;21080;-66
2022/03/19 04:43:14;;;;;;;12.30;6.00;;;;;;;-5.14;66.03;97774.09;1716297;84;21077;-66
2022/03/19 04:45:42;;;;;;;9.90;5.13;;;;;;;-5.11;65.76;97778.22;1716569;83;21076;-66
2022/03/19 04:48:09;;;;;;;10.03;5.77;;;;;;;-5.25;66.81;97769.02;1716547;84;21031;-66
2022/03/19 04:50:40;;;;;;;15.13;8.10;;;;;;;-5.36;67.06;97782.75;1716324;83;21036;-66
2022/03/19 04:53:09;;;;;;;8.43;4.83;;;;;;;-5.49;68.89;97781.30;1716108;84;21558;-66
2022/03/19 04:55:37;;;;;;;10.37;5.80;;;;;;;-5.31;67.99;97781.44;1716429;84;21048;-66
2022/03/19 04:58:07;;;;;;;15.27;6.97;;;;;;;-5.22;67.62;97778.66;1716345;84;21040;-66
2022/03/19 05:00:34;;;;;;;12.57;5.70;;;;;;;-5.24;68.94;97778.95;1716304;84;21020;-66
2022/03/19 05:03:01;;;;;;;9.57;5.00;;;;;;;-5.14;67.73;97771.16;1716335;84;21011;-67
2022/03/19 05:05:27;;;;;;;16.07;6.90;;;;;;;-5.07;68.57;97774.68;1716581;84;21021;-66
2022/03/19 05:07:56;;;;;;;26.10;10.17;;;;;;;-5.06;67.64;97775.20;1716427;84;21605;-66
2022/03/19 05:13:09;;;;;;;10.43;5.97;;;;;;;-5.07;68.46;97775.08;1716667;84;20981;-66
2022/03/19 05:15:37;;;;;;;9.13;5.40;;;;;;;-5.11;68.48;97779.50;1716371;84;21097;-66
2022/03/19 05:18:04;;;;;;;11.03;5.37;;;;;;;-4.98;68.87;97778.76;1716450;83;21008;-66
2022/03/19 05:20:31;;;;;;;8.67;4.93;;;;;;;-4.89;69.00;97773.00;1716565;84;21068;-66
2022/03/19 05:22:58;;;;;;;12.47;6.23;;;;;;;-4.84;68.68;97780.31;1716355;84;21032;-66
2022/03/19 05:25:25;;;;;;;51.20;22.37;;;;;;;-4.83;69.75;97782.09;1715922;83;21104;-66
2022/03/19 05:27:52;;;;;;;38.03;18.77;;;;;;;-4.60;69.13;97778.66;1716385;83;21040;-66
2022/03/19 05:30:19;;;;;;;44.20;19.30;;;;;;;-4.33;67.87;97778.00;1716287;83;21064;-66
2022/03/19 05:32:46;;;;;;;40.73;17.57;;;;;;;-4.20;66.38;97780.72;1716294;84;21040;-66
2022/03/19 05:35:13;;;;;;;37.07;16.70;;;;;;;-4.06;66.32;97777.84;1716578;83;21005;-66
2022/03/19 05:37:40;;;;;;;27.13;13.57;;;;;;;-3.95;65.86;97773.09;1716115;84;21033;-66
2022/03/19 05:40:09;;;;;;;24.13;12.50;;;;;;;-3.87;65.82;97783.95;1716430;83;21044;-66
2022/03/19 05:42:36;;;;;;;25.80;13.83;;;;;;;-3.77;64.80;97774.80;1716395;83;21563;-66
2022/03/19 05:45:03;;;;;;;23.07;11.20;;;;;;;-3.62;64.84;97781.05;1716272;83;21041;-66
2022/03/19 05:47:30;;;;;;;26.73;11.63;;;;;;;-3.61;64.91;97780.64;1716419;84;21076;-66
2022/03/19 05:49:57;;;;;;;44.27;19.80;;;;;;;-3.70;66.31;97780.50;1716697;83;21008;-66
2022/03/19 05:52:23;;;;;;;95.40;39.33;;;;;;;-3.57;65.56;97778.80;1716368;83;21077;-66
2022/03/19 05:54:50;;;;;;;85.93;38.60;;;;;;;-3.52;65.55;97783.48;1716493;83;21029;-66
2022/03/19 05:57:17;;;;;;;35.93;20.03;;;;;;;-3.29;66.01;97780.33;1716220;84;21049;-66
2022/03/19 05:59:43;;;;;;;20.57;12.43;;;;;;;-3.00;64.85;97785.31;1716020;84;21040;-66
2022/03/19 06:02:10;;;;;;;19.20;11.73;;;;;;;-2.77;64.30;97768.79;1716480;83;21017;-66
2022/03/19 06:04:37;;;;;;;21.27;10.87;;;;;;;-2.61;63.07;97763.47;1716350;84;21045;-67
2022/03/19 06:07:04;;;;;;;20.77;12.60;;;;;;;-2.56;62.26;97763.78;1716090;83;21583;-66
2022/03/19 06:09:31;;;;;;;21.93;11.93;;;;;;;-2.48;61.31;97767.77;1712960;83;21064;-66
2022/03/19 06:11:58;;;;;;;19.03;11.67;;;;;;;-2.37;61.77;97760.71;1707790;84;21029;-66
2022/03/19 06:14:25;;;;;;;17.90;11.40;;;;;;;-2.27;61.66;97757.97;1707782;84;21026;-66
2022/03/19 06:16:51;;;;;;;24.00;11.50;;;;;;;-2.10;61.48;97764.62;1707962;84;21066;-66
2022/03/19 06:19:18;;;;;;;27.03;16.97;;;;;;;-1.99;61.40;97767.48;1707750;84;21080;-66
2022/03/19 06:21:45;;;;;;;35.20;21.53;;;;;;;-1.79;61.19;97767.48;1707666;84;21077;-66
2022/03/19 06:24:12;;;;;;;32.30;14.30;;;;;;;-1.67;59.81;97763.08;1708054;84;21037;-66
2022/03/19 06:26:39;;;;;;;70.33;32.43;;;;;;;-1.60;56.91;97761.79;1708022;84;21044;-66
2022/03/19 06:29:06;;;;;;;31.00;18.10;;;;;;;-1.48;58.05;97768.15;1707478;84;21546;-66
2022/03/19 06:31:33;;;;;;;37.73;18.27;;;;;;;-1.42;55.80;97766.81;1707693;84;21025;-66
2022/03/19 06:34:00;;;;;;;29.57;17.50;;;;;;;-1.39;55.98;97764.81;1708134;84;21061;-66
2022/03/19 06:39:13;;;;;;;23.30;10.93;;;;;;;-1.24;55.39;97770.94;1707985;84;21021;-66
2022/03/19 06:41:40;;;;;;;14.43;8.77;;;;;;;-1.15;56.07;97774.11;1707899;84;21053;-67
2022/03/19 06:44:07;;;;;;;18.43;8.20;;;;;;;-1.03;56.17;97765.28;1707715;84;21041;-66
2022/03/19 06:46:35;;;;;;;14.27;7.90;;;;;;;-0.88;56.40;97765.84;1707819;84;21045;-67
2022/03/19 06:49:01;;;;;;;13.33;8.07;;;;;;;-0.73;56.19;97769.76;1707914;84;21009;-67
2022/03/19 06:51:28;;;;;;;14.43;8.20;;;;;;;-0.58;55.80;97763.30;1708039;84;20997;-66
2022/03/19 06:53:55;;;;;;;13.57;8.30;;;;;;;-0.43;55.74;97763.27;1708036;84;21041;-66
2022/03/19 06:56:22;;;;;;;11.80;7.20;;;;;;;-0.36;55.75;97757.64;1707991;84;21009;-66
2022/03/19 06:58:50;;;;;;;18.03;7.57;;;;;;;-0.28;55.70;97759.02;1708412;84;21032;-66
2022/03/19 07:01:16;;;;;;;14.77;7.77;;;;;;;-0.15;55.47;97758.39;1708002;84;21064;-66
2022/03/19 07:03:45;;;;;;;14.70;7.73;;;;;;;0.02;55.52;97764.55;1707634;84;21068;-66
2022/03/19 07:06:13;;;;;;;13.70;8.03;;;;;;;0.16;54.36;97757.16;1707813;84;21053;-66
2022/03/19 07:08:40;;;;;;;16.40;8.00;;;;;;;0.24;54.50;97761.07;1708123;84;21033;-65
2022/03/19 07:11:06;;;;;;;10.03;6.77;;;;;;;0.33;53.85;97753.80;1707951;84;21089;-65
2022/03/19 07:13:34;;;;;;;11.37;7.43;;;;;;;0.45;52.82;97757.47;1708031;84;21024;-65
2022/03/19 07:16:01;;;;;;;13.53;7.37;;;;;;;0.55;53.25;97756.27;1707583;84;21040;-65
2022/03/19 07:18:28;;;;;;;10.87;6.77;;;;;;;0.61;53.01;97753.61;1707832;84;21503;-66
2022/03/19 07:20:54;;;;;;;10.97;6.50;;;;;;;0.68;52.85;97752.63;1707826;84;21033;-66
2022/03/19 07:23:21;;;;;;;11.63;6.40;;;;;;;0.80;51.55;97759.38;1707944;84;21531;-67
2022/03/19 07:25:49;;;;;;;12.23;7.10;;;;;;;0.86;51.95;97754.53;1708085;84;21005;-66
2022/03/19 07:28:18;;;;;;;12.27;7.10;;;;;;;1.02;51.49;97742.34;1708045;84;21518;-66
2022/03/19 07:30:45;;;;;;;11.97;7.23;;;;;;;1.13;51.64;97743.80;1707702;84;20993;-66
2022/03/19 07:33:12;;;;;;;12.50;7.27;;;;;;;1.19;51.23;97741.95;1707944;84;21016;-66
2022/03/19 07:35:41;;;;;;;13.23;6.60;;;;;;;1.26;51.45;97742.34;1707731;84;21049;-66
2022/03/19 07:38:09;;;;;;;14.20;8.07;;;;;;;1.24;48.22;97737.47;1708034;84;21009;-66
2022/03/19 07:43:21;;;;;;;12.83;7.63;;;;;;;1.29;48.45;97739.89;1708277;84;21056;-66
2022/03/19 07:45:49;;;;;;;13.27;7.00;;;;;;;1.45;48.85;97736.77;1689485;84;21048;-66
2022/03/19 07:48:15;;;;;;;11.63;7.87;;;;;;;1.56;46.84;97738.61;1708155;84;20989;-66
2022/03/19 07:50:42;;;;;;;13.87;8.33;;;;;;;1.60;47.50;97744.47;1707696;84;21523;-66
2022/03/19 07:53:10;;;;;;;13.03;7.53;;;;;;;1.62;46.51;97742.43;1708046;84;21032;-65
2022/03/19 07:55:37;;;;;;;15.87;8.57;;;;;;;1.73;47.14;97746.86;1708074;84;21509;-66
2022/03/19 07:58:04;;;;;;;13.13;7.33;;;;;;;1.93;47.13;97742.66;1707905;84;21507;-66
2022/03/19 08:00:31;;;;;;;13.23;8.20;;;;;;;2.06;46.75;97745.03;1707501;84;21025;-66
2022/03/19 08:02:58;;;;;;;12.23;8.30;;;;;;;2.14;46.29;97738.51;1708115;84;21057;-66
2022/03/19 08:05:25;;;;;;;12.73;8.30;;;;;;;2.27;46.09;97746.89;1707593;84;21044;-69
2022/03/19 08:07:51;;;;;;;14.73;8.90;;;;;;;2.42;45.88;97748.03;1708029;84;20997;-66
2022/03/19 08:10:18;;;;;;;15.17;8.80;;;;;;;2.52;46.14;97747.64;1711600;84;21077;-67
2022/03/19 08:12:46;;;;;;;14.33;8.13;;;;;;;2.60;45.59;97747.20;1716393;84;21084;-66
2022/03/19 08:15:13;;;;;;;11.83;7.23;;;;;;;2.71;44.33;97746.80;1716413;83;21364;-66
2022/03/19 08:17:43;;;;;;;12.53;7.83;;;;;;;2.73;43.44;97742.14;1716559;84;21044;-66
2022/03/19 08:20:11;;;;;;;11.80;7.07;;;;;;;2.85;44.44;97743.52;1716479;83;21021;-66
2022/03/19 08:22:39;;;;;;;11.00;7.33;;;;;;;2.93;42.43;97746.09;1716669;83;20996;-66
2022/03/19 08:25:07;;;;;;;13.70;8.70;;;;;;;2.98;43.71;97745.89;1716450;83;21072;-66
2022/03/19 08:27:33;;;;;;;12.80;8.90;;;;;;;3.12;42.59;97743.88;1716418;84;21060;-66
2022/03/19 08:30:02;;;;;;;15.10;7.90;;;;;;;3.34;44.76;97737.91;1716571;83;21025;-67
2022/03/19 08:32:29;;;;;;;11.23;7.00;;;;;;;3.38;42.35;97740.73;1716386;84;21041;-66
2022/03/19 08:34:55;;;;;;;10.70;7.57;;;;;;;3.29;40.89;97739.00;1716352;84;21094;-66
2022/03/19 08:37:22;;;;;;;11.60;8.03;;;;;;;3.32;42.53;97741.74;1716557;84;21001;-66
2022/03/19 08:42:35;;;;;;;11.53;7.40;;;;;;;3.54;41.41;97751.41;1716634;83;21025;-66
2022/03/19 08:45:03;;;;;;;16.23;7.77;;;;;;;3.61;40.58;97740.41;1716117;84;21052;-68
2022/03/19 08:47:30;;;;;;;11.33;6.70;;;;;;;3.72;40.32;97743.89;1716500;84;21435;-66
2022/03/19 08:49:56;;;;;;;14.40;7.43;;;;;;;3.81;38.48;97739.95;1716213;84;21056;-66
2022/03/19 08:52:23;;;;;;;11.23;6.93;;;;;;;3.86;39.75;97738.84;1716562;84;21471;-67
2022/03/19 08:54:50;;;;;;;12.63;6.93;;;;;;;3.99;39.49;97737.21;1716170;83;21559;-66
2022/03/19 08:57:18;;;;;;;10.77;7.57;;;;;;;4.02;38.00;97736.44;1716423;84;21029;-67
2022/03/19 08:59:45;;;;;;;10.80;6.57;;;;;;;4.11;38.92;97739.45;1716527;84;21013;-66
2022/03/19 09:02:12;;;;;;;10.67;7.10;;;;;;;4.23;39.96;97739.03;1716274;84;21522;-67
2022/03/19 09:04:38;;;;;;;11.00;7.00;;;;;;;4.37;37.36;97731.77;1716522;83;21036;-66
2022/03/19 09:07:05;;;;;;;11.43;7.10;;;;;;;4.43;38.32;97739.83;1716427;84;21020;-66
2022/03/19 09:09:31;;;;;;;10.47;6.90;;;;;;;4.51;38.25;97731.48;1716371;84;21514;-67
2022/03/19 09:11:58;;;;;;;13.77;7.93;;;;;;;4.59;37.40;97733.09;1716519;83;21073;-66
2022/03/19 09:14:25;;;;;;;12.33;7.93;;;;;;;4.75;38.13;97724.98;1716515;83;21024;-66
2022/03/19 09:16:51;;;;;;;14.53;8.97;;;;;;;4.90;37.91;97723.37;1716258;84;21032;-66
2022/03/19 09:19:18;;;;;;;12.50;8.47;;;;;;;5.12;39.34;97717.64;1716489;84;20985;-66
2022/03/19 09:21:45;;;;;;;12.10;7.87;;;;;;;5.11;36.76;97711.91;1716430;84;21024;-66
2022/03/19 09:24:15;;;;;;;13.30;8.30;;;;;;;5.27;39.51;97712.96;1716329;84;21068;-66
2022/03/19 09:26:40;;;;;;;14.23;8.60;;;;;;;5.43;39.52;97711.77;1716359;83;21028;-66
2022/03/19 09:29:07;;;;;;;13.23;8.77;;;;;;;5.62;38.56;97706.34;1716475;83;21005;-66
2022/03/19 09:31:34;;;;;;;13.10;8.97;;;;;;;5.71;37.02;97703.56;1716132;84;21451;-66
2022/03/19 09:34:01;;;;;;;12.17;7.47;;;;;;;5.84;35.98;97708.38;1716486;83;21479;-67
2022/03/19 09:36:28;;;;;;;11.50;7.30;;;;;;;5.83;36.43;97709.22;1716621;83;21036;-67
2022/03/19 09:38:55;;;;;;;11.87;7.97;;;;;;;5.94;35.63;97699.13;1716410;83;21583;-67
2022/03/19 09:41:22;;;;;;;11.60;7.73;;;;;;;6.08;35.58;97696.98;1716415;83;20988;-67
2022/03/19 09:43:49;;;;;;;12.10;7.87;;;;;;;5.98;33.14;97687.49;1716231;84;21064;-67
2022/03/19 09:46:16;;;;;;;15.60;10.80;;;;;;;6.16;35.80;97686.31;1716140;83;21554;-66
2022/03/19 09:48:43;;;;;;;10.43;5.80;;;;;;;6.37;34.81;97678.23;1692146;84;21001;-66
2022/03/19 09:51:09;;;;;;;8.83;5.07;;;;;;;6.50;31.77;97685.63;1716215;84;21092;-66
2022/03/19 09:53:36;;;;;;;7.47;4.90;;;;;;;6.54;29.93;97686.20;1716407;83;21020;-66
2022/03/19 09:56:03;;;;;;;11.80;7.97;;;;;;;6.55;28.26;97676.59;1716376;83;21065;-66
2022/03/19 09:58:30;;;;;;;11.93;7.07;;;;;;;6.44;27.95;97669.28;1716254;83;21029;-66
2022/03/19 10:01:06;;;;;;;7.53;4.70;;;;;;;6.50;29.07;97677.75;1716276;84;20981;-66
2022/03/19 10:03:38;;;;;;;7.10;4.27;;;;;;;6.67;28.73;97663.42;1716241;84;21044;-66
2022/03/19 10:08:58;;;;;;;7.30;4.10;;;;;;;7.02;30.31;97667.50;1716535;84;21489;-66
2022/03/19 10:11:33;;;;;;;6.67;4.03;;;;;;;7.18;28.99;97675.80;1716294;83;21535;-66
2022/03/19 10:14:06;;;;;;;8.10;4.33;;;;;;;7.20;27.94;97679.37;1716094;84;21049;-64
2022/03/19 10:16:36;;;;;;;5.05;3.80;;;;;;;7.23;27.78;97678.13;1716421;84;21064;-64
2022/03/19 10:19:07;;;;;;;6.30;3.90;;;;;;;7.29;27.84;97677.89;1716210;84;21008;-65
2022/03/19 10:21:41;;;;;;;7.97;3.90;;;;;;;7.33;28.54;97678.45;1716453;84;21052;-64
2022/03/19 10:24:08;;;;;;;5.72;3.40;;;;;;;7.50;27.56;97673.63;1716565;83;21577;-64
2022/03/19 10:26:40;;;;;;;4.80;3.43;;;;;;;7.52;27.22;97682.88;1691956;84;21032;-64
2022/03/19 10:29:10;;;;;;;4.10;3.43;;;;;;;7.62;26.06;97680.08;1716385;83;21004;-64
2022/03/19 10:31:39;;;;;;;5.67;3.80;;;;;;;7.66;25.93;97672.33;1716394;84;21049;-64
2022/03/19 10:34:07;;;;;;;5.40;3.67;;;;;;;7.79;27.44;97665.65;1716246;83;21064;-64
2022/03/19 10:36:38;;;;;;;5.60;4.20;;;;;;;7.87;26.04;97673.72;1716400;83;21004;-64
2022/03/19 10:39:20;;;;;;;8.97;4.00;;;;;;;7.80;26.13;97662.16;1716434;84;21550;-64
2022/03/19 10:41:48;;;;;;;6.40;3.80;;;;;;;7.77;24.67;97669.97;1716250;84;21067;-64
2022/03/19 10:44:19;;;;;;;6.43;3.80;;;;;;;7.83;26.06;97666.59;1716352;84;21016;-64
2022/03/19 10:46:52;;;;;;;4.70;3.40;;;;;;;7.77;23.73;97664.71;1715872;84;21490;-64
2022/03/19 10:49:23;;;;;;;5.40;3.00;;;;;;;7.86;25.71;97656.16;1716009;83;21076;-64
2022/03/19 10:51:53;;;;;;;5.13;2.73;;;;;;;7.97;26.10;97651.64;1716407;83;21020;-64
2022/03/19 10:54:22;;;;;;;6.47;3.50;;;;;;;8.19;25.51;97650.86;1716108;84;21029;-64
2022/03/19 10:56:50;;;;;;;6.13;3.80;;;;;;;8.22;24.65;97646.98;1716383;84;21001;-64
2022/03/19 10:59:17;;;;;;;3.77;2.87;;;;;;;8.35;25.40;97649.47;1716785;83;21040;-64
2022/03/19 11:01:48;;;;;;;4.53;3.40;;;;;;;8.43;25.36;97649.23;1716194;84;21024;-64
2022/03/19 11:04:15;;;;;;;5.43;3.23;;;;;;;8.57;24.79;97647.81;1716358;83;20997;-64
2022/03/19 11:06:45;;;;;;;5.17;3.93;;;;;;;9.00;24.00;97646.53;1716411;84;21009;-64
2022/03/19 11:09:15;;;;;;;4.70;3.40;;;;;;;9.38;24.81;97652.98;1716183;83;21017;-64
2022/03/19 11:12:01;;;;;;;5.40;3.93;;;;;;;9.71;23.17;97638.21;1716364;84;21069;-64
2022/03/19 11:14:30;;;;;;;5.37;3.87;;;;;;;10.13;22.77;97626.58;1716533;83;21076;-64
2022/03/19 11:17:23;;;;;;;7.20;3.80;;;;;;;10.46;22.17;97629.31;1716077;84;21036;-64
2022/03/19 11:19:52;;;;;;;5.12;3.60;;;;;;;10.64;20.98;97632.23;1716485;83;21020;-64
2022/03/19 11:22:21;;;;;;;5.12;3.47;;;;;;;11.01;21.63;97635.33;1716164;84;21028;-64
2022/03/19 11:25:19;;;;;;;4.75;3.42;;;;;;;11.01;20.36;97632.69;1716326;84;21064;-64
2022/03/19 11:27:53;;;;;;;4.75;3.50;;;;;;;11.53;21.94;97628.00;1702490;84;21037;-64
2022/03/19 11:30:30;;;;;;;5.05;3.58;;;;;;;11.88;21.33;97610.30;1716208;84;21048;-64
2022/03/19 11:33:18;;;;;;;5.03;3.85;;;;;;;12.20;20.89;97604.39;1715054;84;21052;-64
2022/03/19 11:35:50;;;;;;;4.85;3.33;;;;;;;12.40;20.01;97604.08;1716396;84;21069;-64
2022/03/19 11:38:24;;;;;;;5.40;4.03;;;;;;;12.78;21.30;97605.62;1713665;84;21092;-65
2022/03/19 11:40:58;;;;;;;5.75;3.95;;;;;;;13.20;17.80;97591.19;1716550;84;21004;-65
2022/03/19 11:43:29;;;;;;;;;;;;;;;13.20;17.80;97591.19;1718754;84;21016;-65
2022/03/19 11:46:10;;;;;;;7.90;5.17;;;;;;;13.09;18.81;97587.19;1704618;84;20145;-65
2022/03/19 11:48:51;;;;;;;6.90;4.80;;;;;;;13.43;18.45;97588.66;1686572;85;21132;-65
2022/03/19 11:51:31;;;;;;;5.50;3.90;;;;;;;13.53;19.99;97583.81;1686302;85;21032;-65
2022/03/19 11:54:04;;;;;;;7.92;3.98;;;;;;;14.18;19.88;97590.00;1686362;85;21084;-65